createdAt,value
2022-09-02T00:00:49.643Z,99493.84
2022-09-02T00:01:59.572Z,99489.06
2022-09-02T00:03:04.047Z,99487.50
2022-09-02T00:04:13.929Z,99499.38
2022-09-02T00:05:18.642Z,99486.31
2022-09-02T00:06:21.068Z,99493.84
2022-09-02T00:07:24.525Z,99501.72
2022-09-02T00:08:29.223Z,99490.66
2022-09-02T00:09:35.786Z,99489.84
2022-09-02T00:10:42.544Z,99495.38
2022-09-02T00:11:47.134Z,99501.72
2022-09-02T00:12:53.404Z,99499.38
2022-09-02T00:13:58.410Z,99499.34
2022-09-02T00:15:00.486Z,99502.09
2022-09-02T00:16:04.782Z,99505.69
2022-09-02T00:17:07.444Z,99504.88
2022-09-02T00:18:15.451Z,99496.97
2022-09-02T00:19:24.973Z,99491.03
2022-09-02T00:20:28.565Z,99495.00
2022-09-02T00:21:35.335Z,99493.84
2022-09-02T00:22:39.952Z,99502.50
2022-09-02T00:23:44.632Z,99496.22
2022-09-02T00:24:46.948Z,99502.53
2022-09-02T00:25:51.871Z,99492.66
2022-09-02T00:26:56.400Z,99492.25
2022-09-02T00:27:59.287Z,99500.97
2022-09-02T00:29:02.024Z,99497.38
2022-09-02T00:30:07.124Z,99498.97
2022-09-02T00:31:13.798Z,99496.19
2022-09-02T00:32:18.167Z,99497.78
2022-09-02T00:33:23.599Z,99490.66
2022-09-02T00:34:26.053Z,99495.03
2022-09-02T00:35:30.001Z,99491.06
2022-09-02T00:36:33.630Z,99495.44
2022-09-02T00:37:36.838Z,99493.84
2022-09-02T00:38:40.248Z,99486.72
2022-09-02T00:39:44.120Z,99486.72
2022-09-02T00:40:48.900Z,99496.97
2022-09-02T00:41:51.190Z,99495.03
2022-09-02T00:42:53.323Z,99496.19
2022-09-02T00:44:05.974Z,99497.75
2022-09-02T00:45:12.045Z,99494.22
2022-09-02T00:46:22.317Z,99501.31
2022-09-02T00:47:27.388Z,99498.56
2022-09-02T00:48:30.424Z,99504.09
2022-09-02T00:49:42.032Z,99498.56
2022-09-02T00:50:46.597Z,99501.34
2022-09-02T00:51:57.389Z,99490.66
2022-09-02T00:53:07.115Z,99500.56
2022-09-02T00:54:10.090Z,99493.03
2022-09-02T00:55:18.707Z,99496.19
2022-09-02T00:56:25.558Z,99498.56
2022-09-02T00:57:41.852Z,99494.22
2022-09-02T00:58:46.263Z,99503.31
2022-09-02T01:00:04.838Z,99500.53
2022-09-02T01:01:11.816Z,99502.50
2022-09-02T01:02:15.709Z,99498.56
2022-09-02T01:03:25.755Z,99505.69
2022-09-02T01:04:29.617Z,99507.28
2022-09-02T01:05:38.621Z,99504.09
2022-09-02T01:06:45.526Z,99497.00
2022-09-02T01:07:49.337Z,99500.16
2022-09-02T01:09:12.355Z,99498.97
2022-09-02T01:10:25.587Z,99493.44
2022-09-02T01:11:32.645Z,99495.03
2022-09-02T01:12:36.148Z,99493.03
2022-09-02T01:13:43.255Z,99492.25
2022-09-02T01:14:46.583Z,99493.03
2022-09-02T01:15:54.558Z,99491.44
2022-09-02T01:17:01.194Z,99497.38
2022-09-02T01:18:07.255Z,99496.19
2022-09-02T01:19:20.460Z,99491.84
2022-09-02T01:20:27.512Z,99493.84
2022-09-02T01:21:30.738Z,99495.78
2022-09-02T01:22:33.923Z,99490.25
2022-09-02T01:23:39.504Z,99497.78
2022-09-02T01:24:43.237Z,99486.31
2022-09-02T01:25:47.351Z,99498.97
2022-09-02T01:26:53.511Z,99491.44
2022-09-02T01:28:05.589Z,99493.84
2022-09-02T01:29:11.596Z,99501.75
2022-09-02T01:30:17.165Z,99504.09
2022-09-02T01:31:21.402Z,99508.44
2022-09-02T01:32:25.016Z,99497.78
2022-09-02T01:33:27.527Z,99505.69
2022-09-02T01:34:31.241Z,99500.94
2022-09-02T01:35:33.793Z,99504.13
2022-09-02T01:36:41.075Z,99506.50
2022-09-02T01:37:54.748Z,99504.13
2022-09-02T01:38:59.617Z,99506.06
2022-09-02T01:40:06.461Z,99509.25
2022-09-02T01:41:10.591Z,99515.97
2022-09-02T01:42:13.353Z,99517.13
2022-09-02T01:43:21.933Z,99516.75
2022-09-02T01:44:27.822Z,99515.94
2022-09-02T01:45:30.574Z,99509.59
2022-09-02T01:46:39.482Z,99515.94
2022-09-02T01:47:43.152Z,99512.00
2022-09-02T01:48:46.331Z,99520.28
2022-09-02T01:49:50.711Z,99524.63
2022-09-02T01:50:58.050Z,99523.03
2022-09-02T01:52:02.158Z,99535.66
2022-09-02T01:53:06.818Z,99534.81
2022-09-02T01:54:10.020Z,99532.50
2022-09-02T01:55:17.352Z,99540.38
2022-09-02T01:56:20.609Z,99535.66
2022-09-02T01:57:25.261Z,99526.13
2022-09-02T01:58:28.394Z,99539.13
2022-09-02T01:59:31.256Z,99538.75
2022-09-02T02:00:36.377Z,99533.22
2022-09-02T02:01:40.481Z,99532.44
2022-09-02T02:02:44.287Z,99533.22
2022-09-02T02:03:50.456Z,99536.34
2022-09-02T02:04:57.030Z,99537.91
2022-09-02T02:06:02.894Z,99537.09
2022-09-02T02:07:10.393Z,99538.69
2022-09-02T02:08:15.795Z,99537.94
2022-09-02T02:09:20.307Z,99541.03
2022-09-02T02:10:23.454Z,99545.00
2022-09-02T02:11:27.935Z,99538.72
2022-09-02T02:12:34.493Z,99536.00
2022-09-02T02:13:39.502Z,99547.00
2022-09-02T02:14:45.180Z,99537.53
2022-09-02T02:15:48.160Z,99543.84
2022-09-02T02:16:52.288Z,99540.31
2022-09-02T02:17:56.820Z,99540.34
2022-09-02T02:19:03.730Z,99541.97
2022-09-02T02:20:09.101Z,99546.69
2022-09-02T02:21:13.321Z,99538.78
2022-09-02T02:22:16.977Z,99545.91
2022-09-02T02:23:21.069Z,99546.72
2022-09-02T02:24:29.652Z,99543.47
2022-09-02T02:25:32.536Z,99546.66
2022-09-02T02:26:36.221Z,99535.59
2022-09-02T02:27:40.680Z,99547.50
2022-09-02T02:28:47.739Z,99547.03
2022-09-02T02:29:49.898Z,99549.06
2022-09-02T02:30:52.859Z,99539.53
2022-09-02T02:31:55.162Z,99548.97
2022-09-02T02:32:59.815Z,99541.88
2022-09-02T02:34:04.094Z,99545.00
2022-09-02T02:35:07.130Z,99551.69
2022-09-02T02:36:15.785Z,99543.41
2022-09-02T02:37:21.106Z,99546.59
2022-09-02T02:38:25.727Z,99547.78
2022-09-02T02:39:28.047Z,99539.94
2022-09-02T02:40:30.367Z,99542.31
2022-09-02T02:41:34.258Z,99538.75
2022-09-02T02:42:40.529Z,99541.91
2022-09-02T02:43:50.354Z,99552.59
2022-09-02T02:44:52.581Z,99545.13
2022-09-02T02:45:56.071Z,99545.16
2022-09-02T02:47:02.105Z,99556.97
2022-09-02T02:48:04.737Z,99557.75
2022-09-02T02:49:11.100Z,99557.00
2022-09-02T02:50:16.200Z,99555.41
2022-09-02T02:51:19.956Z,99549.88
2022-09-02T02:52:28.411Z,99555.81
2022-09-02T02:53:32.184Z,99553.81
2022-09-02T02:54:34.953Z,99557.41
2022-09-02T02:55:38.122Z,99556.22
2022-09-02T02:56:40.587Z,99565.69
2022-09-02T02:57:44.795Z,99565.72
2022-09-02T02:58:47.891Z,99568.09
2022-09-02T02:59:50.148Z,99572.03
2022-09-02T03:00:58.938Z,99566.88
2022-09-02T03:02:03.219Z,99576.78
2022-09-02T03:03:10.876Z,99574.38
2022-09-02T03:04:14.543Z,99569.25
2022-09-02T03:05:18.091Z,99567.25
2022-09-02T03:06:23.920Z,99571.25
2022-09-02T03:07:29.408Z,99564.13
2022-09-02T03:08:33.309Z,99569.59
2022-09-02T03:09:38.686Z,99566.44
2022-09-02T03:10:45.397Z,99568.06
2022-09-02T03:11:48.882Z,99576.75
2022-09-02T03:12:51.547Z,99575.94
2022-09-02T03:13:56.100Z,99573.56
2022-09-02T03:15:02.613Z,99584.25
2022-09-02T03:16:07.185Z,99582.28
2022-09-02T03:17:09.604Z,99570.81
2022-09-02T03:18:17.172Z,99584.66
2022-09-02T03:19:23.100Z,99581.53
2022-09-02T03:20:26.645Z,99577.59
2022-09-02T03:21:38.923Z,99572.06
2022-09-02T03:22:43.739Z,99573.66
2022-09-02T03:23:54.409Z,99581.13
2022-09-02T03:25:00.149Z,99576.00
2022-09-02T03:26:11.438Z,99573.63
2022-09-02T03:27:16.517Z,99575.97
2022-09-02T03:28:21.447Z,99577.91
2022-09-02T03:29:25.057Z,99583.09
2022-09-02T03:30:30.757Z,99581.09
2022-09-02T03:31:33.280Z,99575.94
2022-09-02T03:32:37.636Z,99586.59
2022-09-02T03:33:41.498Z,99585.44
2022-09-02T03:34:45.335Z,99581.94
2022-09-02T03:35:48.095Z,99578.34
2022-09-02T03:36:50.917Z,99584.69
2022-09-02T03:37:54.047Z,99583.50
2022-09-02T03:39:00.830Z,99579.94
2022-09-02T03:40:12.463Z,99581.91
2022-09-02T03:41:15.823Z,99581.94
2022-09-02T03:42:21.270Z,99580.72
2022-09-02T03:43:29.160Z,99580.72
2022-09-02T03:44:34.454Z,99572.06
2022-09-02T03:45:38.983Z,99580.72
2022-09-02T03:46:41.389Z,99584.31
2022-09-02T03:47:52.739Z,99578.38
2022-09-02T03:49:03.979Z,99577.59
2022-09-02T03:50:08.712Z,99591.03
2022-09-02T03:51:11.467Z,99585.50
2022-09-02T03:52:13.637Z,99597.34
2022-09-02T03:53:19.682Z,99589.84
2022-09-02T03:54:24.702Z,99595.75
2022-09-02T03:55:30.146Z,99597.31
2022-09-02T03:56:36.870Z,99593.34
2022-09-02T03:57:40.860Z,99594.19
2022-09-02T03:58:48.411Z,99599.72
2022-09-02T03:59:52.214Z,99596.59
2022-09-02T04:00:55.541Z,99599.75
2022-09-02T04:02:03.700Z,99595.00
2022-09-02T04:03:26.119Z,99607.66
2022-09-02T04:04:29.955Z,99604.50
2022-09-02T04:05:32.363Z,99603.72
2022-09-02T04:06:38.120Z,99603.69
2022-09-02T04:07:42.888Z,99617.13
2022-09-02T04:08:50.122Z,99606.88
2022-09-02T04:09:56.129Z,99606.09
2022-09-02T04:10:58.260Z,99602.91
2022-09-02T04:12:01.566Z,99608.44
2022-09-02T04:13:05.550Z,99602.09
2022-09-02T04:14:08.036Z,99602.50
2022-09-02T04:15:12.124Z,99608.84
2022-09-02T04:16:21.448Z,99605.28
2022-09-02T04:17:23.965Z,99607.63
2022-09-02T04:18:27.776Z,99612.41
2022-09-02T04:19:30.781Z,99616.34
2022-09-02T04:20:33.882Z,99619.50
2022-09-02T04:21:38.363Z,99621.09
2022-09-02T04:22:41.897Z,99617.16
2022-09-02T04:23:44.959Z,99625.84
2022-09-02T04:24:50.019Z,99624.25
2022-09-02T04:25:52.079Z,99621.09
2022-09-02T04:26:56.473Z,99617.53
2022-09-02T04:28:01.005Z,99620.28
2022-09-02T04:29:04.466Z,99624.25
2022-09-02T04:30:11.330Z,99619.88
2022-09-02T04:31:19.399Z,99620.28
2022-09-02T04:32:23.313Z,99623.88
2022-09-02T04:33:28.197Z,99613.97
2022-09-02T04:34:31.864Z,99623.47
2022-09-02T04:35:36.129Z,99631.38
2022-09-02T04:36:38.328Z,99620.28
2022-09-02T04:37:47.847Z,99631.38
2022-09-02T04:38:52.115Z,99628.22
2022-09-02T04:40:02.224Z,99629.00
2022-09-02T04:41:13.295Z,99630.59
2022-09-02T04:42:15.860Z,99638.13
2022-09-02T04:43:18.794Z,99635.34
2022-09-02T04:44:22.363Z,99636.94
2022-09-02T04:45:29.970Z,99627.44
2022-09-02T04:46:35.010Z,99624.28
2022-09-02T04:47:45.902Z,99628.22
2022-09-02T04:48:52.765Z,99630.59
2022-09-02T04:49:55.426Z,99636.94
2022-09-02T04:51:04.949Z,99634.53
2022-09-02T04:52:07.020Z,99637.31
2022-09-02T04:53:10.749Z,99637.31
2022-09-02T04:54:14.618Z,99631.38
2022-09-02T04:55:19.429Z,99641.25
2022-09-02T04:56:29.787Z,99638.91
2022-09-02T04:57:35.083Z,99639.31
2022-09-02T04:58:40.859Z,99629.00
2022-09-02T04:59:43.876Z,99636.53
2022-09-02T05:00:47.371Z,99634.53
2022-09-02T05:01:51.844Z,99636.91
2022-09-02T05:03:05.204Z,99625.06
2022-09-02T05:04:10.112Z,99635.72
2022-09-02T05:05:18.287Z,99637.72
2022-09-02T05:06:27.421Z,99646.03
2022-09-02T05:07:36.556Z,99644.03
2022-09-02T05:08:39.296Z,99640.09
2022-09-02T05:09:42.972Z,99635.72
2022-09-02T05:10:48.520Z,99647.22
2022-09-02T05:11:53.093Z,99651.97
2022-09-02T05:12:59.883Z,99633.75
2022-09-02T05:14:07.319Z,99641.69
2022-09-02T05:15:18.760Z,99655.88
2022-09-02T05:16:31.950Z,99647.19
2022-09-02T05:17:36.507Z,99655.50
2022-09-02T05:18:39.256Z,99662.97
2022-09-02T05:19:41.876Z,99667.75
2022-09-02T05:20:45.101Z,99662.22
2022-09-02T05:21:51.939Z,99657.81
2022-09-02T05:23:02.373Z,99659.84
2022-09-02T05:24:04.654Z,99660.22
2022-09-02T05:25:09.777Z,99658.28
2022-09-02T05:26:14.634Z,99666.19
2022-09-02T05:27:18.597Z,99658.66
2022-09-02T05:28:23.597Z,99664.59
2022-09-02T05:29:26.745Z,99671.72
2022-09-02T05:30:34.216Z,99667.00
2022-09-02T05:31:36.372Z,99668.56
2022-09-02T05:32:41.475Z,99663.41
2022-09-02T05:33:45.139Z,99662.66
2022-09-02T05:34:54.391Z,99668.56
2022-09-02T05:35:56.994Z,99664.59
2022-09-02T05:36:59.812Z,99669.38
2022-09-02T05:38:05.294Z,99669.75
2022-09-02T05:39:09.702Z,99659.84
2022-09-02T05:40:14.704Z,99670.53
2022-09-02T05:41:23.667Z,99675.31
2022-09-02T05:42:30.150Z,99675.69
2022-09-02T05:43:32.725Z,99674.50
2022-09-02T05:44:39.178Z,99680.44
2022-09-02T05:45:43.666Z,99687.56
2022-09-02T05:46:48.983Z,99682.81
2022-09-02T05:47:55.461Z,99683.59
2022-09-02T05:49:17.886Z,99685.19
2022-09-02T05:50:28.729Z,99685.97
2022-09-02T05:51:53.377Z,99690.72
2022-09-02T05:53:00.492Z,99687.53
2022-09-02T05:54:05.512Z,99691.50
2022-09-02T05:55:09.590Z,99693.47
2022-09-02T05:56:14.514Z,99693.88
2022-09-02T05:57:18.894Z,99687.94
2022-09-02T05:58:49.176Z,99696.25
2022-09-02T05:59:56.299Z,99700.19
2022-09-02T06:01:11.160Z,99695.09
2022-09-02T06:02:15.677Z,99702.22
2022-09-02T06:03:21.390Z,99695.44
2022-09-02T06:04:48.431Z,99688.31
2022-09-02T06:06:04.409Z,99695.47
2022-09-02T06:07:13.596Z,99697.81
2022-09-02T06:08:18.590Z,99703.31
2022-09-02T06:09:23.415Z,99702.94
2022-09-02T06:10:26.493Z,99693.91
2022-09-02T06:11:29.495Z,99696.66
2022-09-02T06:12:33.455Z,99701.00
2022-09-02T06:13:38.684Z,99704.16
2022-09-02T06:14:43.245Z,99705.00
2022-09-02T06:15:46.468Z,99699.41
2022-09-02T06:16:50.943Z,99707.31
2022-09-02T06:18:01.007Z,99708.94
2022-09-02T06:19:08.492Z,99698.66
2022-09-02T06:20:12.178Z,99707.31
2022-09-02T06:21:18.177Z,99706.41
2022-09-02T06:22:24.233Z,99718.28
2022-09-02T06:23:27.365Z,99703.97
2022-09-02T06:24:30.439Z,99705.66
2022-09-02T06:25:44.870Z,99701.69
2022-09-02T06:26:48.409Z,99712.72
2022-09-02T06:27:50.921Z,99712.75
2022-09-02T06:28:53.604Z,99712.81
2022-09-02T06:29:55.703Z,99723.88
2022-09-02T06:31:07.649Z,99709.19
2022-09-02T06:32:09.767Z,99713.56
2022-09-02T06:33:13.023Z,99723.91
2022-09-02T06:34:24.421Z,99727.00
2022-09-02T06:35:27.661Z,99720.63
2022-09-02T06:36:35.543Z,99719.03
2022-09-02T06:37:38.754Z,99722.63
2022-09-02T06:38:45.956Z,99719.84
2022-09-02T06:39:49.384Z,99727.78
2022-09-02T06:40:57.235Z,99732.56
2022-09-02T06:42:07.514Z,99738.19
2022-09-02T06:43:19.716Z,99733.38
2022-09-02T06:44:47.120Z,99736.56
2022-09-02T06:45:49.796Z,99737.38
2022-09-02T06:46:59.345Z,99740.53
2022-09-02T06:48:02.780Z,99744.88
2022-09-02T06:49:11.547Z,99752.06
2022-09-02T06:50:14.915Z,99748.13
2022-09-02T06:51:22.714Z,99757.16
2022-09-02T06:52:26.471Z,99751.63
2022-09-02T06:53:28.848Z,99758.78
2022-09-02T06:54:31.395Z,99750.09
2022-09-02T06:55:44.930Z,99758.00
2022-09-02T06:56:49.777Z,99759.59
2022-09-02T06:57:55.064Z,99759.59
2022-09-02T06:58:57.870Z,99761.56
2022-09-02T07:00:13.307Z,99759.59
2022-09-02T07:01:27.202Z,99770.69
2022-09-02T07:02:30.024Z,99771.47
2022-09-02T07:03:52.616Z,99774.66
2022-09-02T07:05:11.449Z,99758.75
2022-09-02T07:06:14.966Z,99770.56
2022-09-02T07:07:21.242Z,99772.88
2022-09-02T07:08:30.301Z,99759.81
2022-09-02T07:09:44.352Z,99767.41
2022-09-02T07:10:50.774Z,99765.78
2022-09-02T07:11:53.237Z,99766.50
2022-09-02T07:13:00.351Z,99773.59
2022-09-02T07:14:06.828Z,99760.00
2022-09-02T07:15:12.062Z,99767.72
2022-09-02T07:16:22.734Z,99764.91
2022-09-02T07:17:33.113Z,99777.44
2022-09-02T07:18:39.299Z,99771.31
2022-09-02T07:19:44.022Z,99775.16
2022-09-02T07:20:47.764Z,99774.63
2022-09-02T07:21:50.605Z,99769.50
2022-09-02T07:22:56.792Z,99768.91
2022-09-02T07:24:02.192Z,99773.84
2022-09-02T07:25:06.062Z,99779.50
2022-09-02T07:26:18.010Z,99771.34
2022-09-02T07:27:22.460Z,99786.97
2022-09-02T07:28:28.050Z,99778.91
2022-09-02T07:29:30.267Z,99778.66
2022-09-02T07:30:32.924Z,99780.59
2022-09-02T07:31:47.728Z,99770.00
2022-09-02T07:32:52.994Z,99779.00
2022-09-02T07:33:59.272Z,99773.78
2022-09-02T07:35:06.230Z,99780.59
2022-09-02T07:36:12.245Z,99777.09
2022-09-02T07:37:22.850Z,99776.25
2022-09-02T07:38:28.331Z,99777.00
2022-09-02T07:39:31.436Z,99777.28
2022-09-02T07:40:37.162Z,99783.81
2022-09-02T07:41:42.738Z,99774.28
2022-09-02T07:42:45.565Z,99786.00
2022-09-02T07:43:51.039Z,99786.25
2022-09-02T07:44:54.603Z,99781.72
2022-09-02T07:45:59.595Z,99776.44
2022-09-02T07:47:02.599Z,99790.22
2022-09-02T07:48:07.867Z,99784.75
2022-09-02T07:49:18.865Z,99786.78
2022-09-02T07:50:28.099Z,99784.50
2022-09-02T07:51:33.511Z,99786.66
2022-09-02T07:52:37.184Z,99780.88
2022-09-02T07:53:40.620Z,99780.03
2022-09-02T07:54:43.403Z,99787.78
2022-09-02T07:55:47.435Z,99785.31
2022-09-02T07:56:51.428Z,99785.31
2022-09-02T07:57:55.390Z,99788.94
2022-09-02T07:58:58.826Z,99796.28
2022-09-02T08:00:01.042Z,99786.75
2022-09-02T08:01:05.309Z,99788.34
2022-09-02T08:02:09.708Z,99794.50
2022-09-02T08:03:12.802Z,99786.81
2022-09-02T08:04:25.877Z,99782.81
2022-09-02T08:05:29.210Z,99794.13
2022-09-02T08:06:34.857Z,99791.25
2022-09-02T08:07:37.707Z,99795.97
2022-09-02T08:08:41.919Z,99796.75
2022-09-02T08:09:43.988Z,99808.81
2022-09-02T08:10:50.576Z,99809.75
2022-09-02T08:11:53.089Z,99803.47
2022-09-02T08:13:00.981Z,99827.31
2022-09-02T08:14:03.340Z,99814.81
2022-09-02T08:15:06.210Z,99822.72
2022-09-02T08:16:08.516Z,99825.47
2022-09-02T08:17:13.939Z,99817.19
2022-09-02T08:18:21.081Z,99825.03
2022-09-02T08:19:25.571Z,99824.47
2022-09-02T08:20:27.960Z,99830.34
2022-09-02T08:21:30.102Z,99814.50
2022-09-02T08:22:35.921Z,99809.41
2022-09-02T08:23:41.511Z,99815.59
2022-09-02T08:24:43.712Z,99815.03
2022-09-02T08:25:47.129Z,99819.44
2022-09-02T08:26:52.757Z,99819.53
2022-09-02T08:28:57.906Z,99826.91
2022-09-02T08:30:01.682Z,99830.56
2022-09-02T08:31:07.845Z,99821.88
2022-09-02T08:32:11.234Z,99821.94
2022-09-02T08:33:13.599Z,99823.50
2022-09-02T08:34:16.232Z,99824.22
2022-09-02T08:35:19.445Z,99822.63
2022-09-02T08:36:21.535Z,99821.75
2022-09-02T08:37:23.659Z,99826.97
2022-09-02T08:38:25.736Z,99844.03
2022-09-02T08:39:27.891Z,99823.94
2022-09-02T08:40:42.563Z,99831.41
2022-09-02T08:41:56.851Z,99825.00
2022-09-02T08:42:59.234Z,99837.53
2022-09-02T08:44:02.675Z,99841.09
2022-09-02T08:45:11.347Z,99839.59
2022-09-02T08:46:16.729Z,99853.88
2022-09-02T08:47:25.531Z,99845.34
2022-09-02T08:48:34.215Z,99850.06
2022-09-02T08:49:44.496Z,99847.03
2022-09-02T08:50:49.987Z,99841.31
2022-09-02T08:52:01.710Z,99853.03
2022-09-02T08:53:09.461Z,99853.06
2022-09-02T08:54:23.475Z,99867.94
2022-09-02T08:55:34.899Z,99858.44
2022-09-02T08:56:37.270Z,99858.00
2022-09-02T08:57:46.795Z,99858.38
2022-09-02T08:58:56.967Z,99853.06
2022-09-02T09:00:01.916Z,99848.53
2022-09-02T09:01:06.983Z,99854.19
2022-09-02T09:02:24.266Z,99858.47
2022-09-02T09:03:37.555Z,99858.28
2022-09-02T09:04:51.722Z,99854.41
2022-09-02T09:06:14.664Z,99845.41
2022-09-02T09:07:48.255Z,99841.88
2022-09-02T09:09:10.429Z,99852.69
2022-09-02T09:10:37.320Z,99847.63
2022-09-02T09:11:58.404Z,99851.13
2022-09-02T09:13:20.619Z,99857.22
2022-09-02T09:14:37.956Z,99850.59
2022-09-02T09:16:08.328Z,99849.06
2022-09-02T09:17:38.029Z,99869.16
2022-09-02T09:18:43.513Z,99861.59
2022-09-02T09:19:45.615Z,99859.69
2022-09-02T09:20:48.859Z,99852.63
2022-09-02T09:21:54.176Z,99868.31
2022-09-02T09:22:59.040Z,99859.03
2022-09-02T09:24:06.950Z,99850.91
2022-09-02T09:25:17.233Z,99861.19
2022-09-02T09:26:30.766Z,99865.44
2022-09-02T09:27:32.887Z,99863.91
2022-09-02T09:28:44.908Z,99868.53
2022-09-02T09:29:48.992Z,99867.41
2022-09-02T09:30:51.172Z,99868.22
2022-09-02T09:32:00.260Z,99866.97
2022-09-02T09:33:04.683Z,99865.41
2022-09-02T09:34:09.639Z,99868.97
2022-09-02T09:35:16.169Z,99870.63
2022-09-02T09:36:18.392Z,99886.53
2022-09-02T09:37:37.265Z,99877.41
2022-09-02T09:38:39.247Z,99882.44
2022-09-02T09:39:41.792Z,99879.38
2022-09-02T09:40:43.913Z,99881.84
2022-09-02T09:41:49.489Z,99887.59
2022-09-02T09:43:03.434Z,99880.69
2022-09-02T09:44:07.697Z,99890.22
2022-09-02T09:45:23.197Z,99885.91
2022-09-02T09:46:28.991Z,99886.53
2022-09-02T09:47:33.413Z,99896.09
2022-09-02T09:48:49.870Z,99892.84
2022-09-02T09:50:16.909Z,99904.00
2022-09-02T09:51:19.657Z,99915.44
2022-09-02T09:52:30.526Z,99906.25
2022-09-02T09:53:34.819Z,99895.84
2022-09-02T09:54:37.086Z,99911.38
2022-09-02T09:55:54.141Z,99913.00
2022-09-02T09:56:58.101Z,99920.06
2022-09-02T09:58:09.589Z,99921.47
2022-09-02T09:59:39.688Z,99923.50
2022-09-02T10:00:41.876Z,99914.38
2022-09-02T10:01:51.617Z,99913.38
2022-09-02T10:02:57.044Z,99917.97
2022-09-02T10:04:32.344Z,99919.34
2022-09-02T10:05:38.724Z,99913.09
2022-09-02T10:06:43.911Z,99914.63
2022-09-02T10:08:04.723Z,99904.91
2022-09-02T10:09:15.180Z,99908.41
2022-09-02T10:10:21.445Z,99909.88
2022-09-02T10:11:29.919Z,99914.25
2022-09-02T10:12:36.225Z,99905.09
2022-09-02T10:13:38.717Z,99904.22
2022-09-02T10:15:03.145Z,99898.72
2022-09-02T10:16:29.925Z,99910.59
2022-09-02T10:17:39.480Z,99901.97
2022-09-02T10:18:44.825Z,99910.13
2022-09-02T10:20:16.783Z,99908.84
2022-09-02T10:21:20.442Z,99914.50
2022-09-02T10:23:23.560Z,99919.34
2022-09-02T10:24:51.512Z,99912.81
2022-09-02T10:26:12.664Z,99921.59
2022-09-02T10:27:24.574Z,99913.31
2022-09-02T10:29:04.356Z,99916.66
2022-09-02T10:30:19.397Z,99929.63
2022-09-02T10:31:36.029Z,99935.47
2022-09-02T10:32:53.919Z,99938.63
2022-09-02T10:34:31.600Z,99945.34
2022-09-02T10:35:58.321Z,99941.50
2022-09-02T10:37:13.293Z,99938.78
2022-09-02T10:38:40.479Z,99934.06
2022-09-02T10:40:03.664Z,99939.84
2022-09-02T10:43:06.207Z,99940.66
2022-09-02T10:44:28.185Z,99931.09
2022-09-02T10:45:48.551Z,99945.38
2022-09-02T10:47:01.876Z,99945.63
2022-09-02T10:48:34.313Z,99942.72
2022-09-02T10:50:04.300Z,99944.78
2022-09-02T10:51:37.577Z,99953.63
2022-09-02T10:52:52.779Z,99944.97
2022-09-02T10:54:13.842Z,99963.19
2022-09-02T10:55:18.323Z,99950.25
2022-09-02T10:56:29.570Z,99955.72
2022-09-02T10:57:46.169Z,99959.06
2022-09-02T10:59:08.197Z,99968.28
2022-09-02T11:00:16.286Z,99954.25
2022-09-02T11:01:28.731Z,99959.94
2022-09-02T11:02:40.591Z,99958.81
2022-09-02T11:04:11.393Z,99961.81
2022-09-02T11:05:18.514Z,99972.69
2022-09-02T11:06:40.275Z,99959.50
2022-09-02T11:08:10.151Z,99974.94
2022-09-02T11:09:41.681Z,99979.38
2022-09-02T11:11:06.378Z,99973.84
2022-09-02T11:12:16.062Z,99975.72
2022-09-02T11:13:28.973Z,99989.13
2022-09-02T11:14:54.381Z,99979.59
2022-09-02T11:16:07.157Z,99980.63
2022-09-02T11:17:23.904Z,99984.91
2022-09-02T11:18:51.509Z,99979.69
2022-09-02T11:20:05.980Z,99983.84
2022-09-02T11:21:46.104Z,99984.16
2022-09-02T11:23:25.094Z,99988.56
2022-09-02T11:25:00.834Z,99991.78
2022-09-02T11:26:21.538Z,99986.28
2022-09-02T11:27:42.202Z,99984.06
2022-09-02T11:29:11.072Z,99986.16
2022-09-02T11:30:18.545Z,100002.41
2022-09-02T11:31:38.872Z,100000.88
2022-09-02T11:32:48.319Z,100008.41
2022-09-02T11:33:58.702Z,100000.16
2022-09-02T11:35:07.371Z,100014.31
2022-09-02T11:36:11.169Z,100003.19
2022-09-02T11:37:43.020Z,100008.38
2022-09-02T11:39:30.582Z,100008.78
2022-09-02T11:42:29.932Z,100008.34
2022-09-02T11:43:56.988Z,99999.13
2022-09-02T11:45:18.092Z,100003.16
2022-09-02T11:46:34.191Z,100011.06
2022-09-02T11:48:10.815Z,100013.31
2022-09-02T11:49:46.609Z,100014.13
2022-09-02T11:51:04.159Z,100004.81
2022-09-02T11:52:51.243Z,100000.84
2022-09-02T11:53:56.355Z,100007.16
2022-09-02T11:55:10.042Z,100012.69
2022-09-02T11:56:20.024Z,100005.47
2022-09-02T11:57:26.011Z,100007.00
2022-09-02T11:58:40.495Z,99998.06
2022-09-02T11:59:51.641Z,100005.31
2022-09-02T12:00:58.568Z,100002.97
2022-09-02T12:02:01.408Z,99995.03
2022-09-02T12:03:37.734Z,99997.81
2022-09-02T12:06:14.061Z,100006.06
2022-09-02T12:07:17.315Z,100003.47
2022-09-02T12:08:28.197Z,100008.28
2022-09-02T12:10:47.905Z,100009.56
2022-09-02T12:11:53.383Z,99999.81
2022-09-02T12:12:55.758Z,100014.19
2022-09-02T12:14:01.712Z,100009.91
2022-09-02T12:15:07.445Z,100009.22
2022-09-02T12:16:15.886Z,100000.28
2022-09-02T12:17:38.199Z,100006.41
2022-09-02T12:18:55.141Z,100011.72
2022-09-02T12:19:57.231Z,100008.34
2022-09-02T12:21:00.155Z,100018.59
2022-09-02T12:22:17.825Z,100013.00
2022-09-02T12:23:48.778Z,100021.69
2022-09-02T12:24:52.133Z,100013.69
2022-09-02T12:26:03.007Z,100018.53
2022-09-02T12:27:08.290Z,100022.38
2022-09-02T12:28:10.807Z,100014.09
2022-09-02T12:29:24.800Z,100018.38
2022-09-02T12:30:56.638Z,100022.78
2022-09-02T12:31:59.163Z,100015.19
2022-09-02T12:33:13.673Z,100019.97
2022-09-02T12:34:21.822Z,100015.63
2022-09-02T12:35:51.836Z,100027.53
2022-09-02T12:37:01.428Z,100026.97
2022-09-02T12:38:12.298Z,100023.06
2022-09-02T12:39:23.387Z,100026.31
2022-09-02T12:40:39.474Z,100036.75
2022-09-02T12:41:44.646Z,100034.59
2022-09-02T12:42:48.450Z,100029.97
2022-09-02T12:44:02.905Z,100033.56
2022-09-02T12:45:25.578Z,100025.97
2022-09-02T12:46:55.660Z,100026.78
2022-09-02T12:47:59.883Z,100032.78
2022-09-02T12:49:14.357Z,100032.44
2022-09-02T12:50:34.983Z,100038.06
2022-09-02T12:51:53.680Z,100033.38
2022-09-02T12:53:23.526Z,100040.47
2022-09-02T12:54:49.272Z,100036.44
2022-09-02T12:56:03.325Z,100042.78
2022-09-02T12:57:12.845Z,100034.25
2022-09-02T12:58:21.086Z,100037.47
2022-09-02T12:59:29.879Z,100042.13
2022-09-02T13:00:46.560Z,100042.63
2022-09-02T13:02:01.532Z,100023.13
2022-09-02T13:03:22.205Z,100026.78
2022-09-02T13:04:41.078Z,100031.47
2022-09-02T13:05:43.737Z,100034.78
2022-09-02T13:07:16.301Z,100044.69
2022-09-02T13:08:49.171Z,100034.53
2022-09-02T13:10:16.339Z,100028.81
2022-09-02T13:11:33.138Z,100041.81
2022-09-02T13:12:53.600Z,100030.91
2022-09-02T13:14:15.162Z,100036.63
2022-09-02T13:15:28.722Z,100046.53
2022-09-02T13:16:56.408Z,100031.63
2022-09-02T13:18:14.522Z,100039.22
2022-09-02T13:19:16.868Z,100037.88
2022-09-02T13:21:00.264Z,100042.06
2022-09-02T13:22:25.393Z,100037.09
2022-09-02T13:24:00.561Z,100034.31
2022-09-02T13:25:21.407Z,100051.25
2022-09-02T13:26:50.855Z,100051.66
2022-09-02T13:28:11.926Z,100061.31
2022-09-02T13:29:16.910Z,100073.94
2022-09-02T13:30:47.307Z,100078.13
2022-09-02T13:32:20.858Z,100101.50
2022-09-02T13:33:23.291Z,100088.75
2022-09-02T13:34:25.516Z,100104.72